Time;durP1;ratioP1;P1;durP2;ratioP2;P2;SDS_P1;SDS_P2;PMS_P1;PMS_P2;Temp;Humidity;BMP_temperature;BMP_pressure;BME280_temperature;BME280_humidity;BME280_pressure;Samples;Min_cycle;Max_cycle;Signal;HPM_P1;HPM_P2
2023/11/18 19:08:05;;;;;;;10.52;1.85;;;20.60;94.70;;;;;;10409968;27;20631;-61
2023/11/18 19:18:24;;;;;;;25.65;3.88;;;19.10;97.20;;;;;;10574688;27;20112;-30
2023/11/18 19:23:26;;;;;;;34.50;4.13;;;14.20;99.90;;;;;;10466913;28;20076;-30
2023/11/18 19:28:28;;;;;;;23.60;3.65;;;13.90;99.90;;;;;;10437237;28;20059;-32
2023/11/18 19:33:31;;;;;;;35.05;5.68;;;13.80;99.90;;;;;;10434754;28;20083;-29
2023/11/18 19:38:33;;;;;;;37.25;5.10;;;13.80;99.90;;;;;;10437179;28;20152;-30
2023/11/18 19:43:35;;;;;;;27.20;4.23;;;13.70;99.90;;;;;;10438167;28;20065;-30
2023/11/18 19:48:38;;;;;;;27.08;5.45;;;13.70;99.90;;;;;;10440687;28;20084;-32
2023/11/18 19:53:40;;;;;;;34.35;6.00;;;13.80;99.90;;;;;;10437689;28;20102;-30
2023/11/18 19:58:41;;;;;;;28.35;4.22;;;14.00;99.90;;;;;;10435148;28;20082;-30
2023/11/18 20:03:45;;;;;;;33.53;4.15;;;13.90;99.90;;;;;;10435485;28;20709;-29
2023/11/18 20:08:46;;;;;;;31.50;4.97;;;14.00;99.90;;;;;;10469778;28;20048;-30
2023/11/18 20:13:48;;;;;;;21.45;4.05;;;14.00;99.90;;;;;;10475073;28;20758;-29
2023/11/18 20:18:51;;;;;;;36.65;4.43;;;14.00;99.90;;;;;;10475981;28;20048;-30
2023/11/18 20:23:53;;;;;;;48.72;4.82;;;13.90;99.90;;;;;;10477218;28;20647;-30
2023/11/18 20:28:55;;;;;;;29.13;3.60;;;13.90;99.90;;;;;;10448729;28;20056;-34
2023/11/18 20:33:59;;;;;;;37.45;5.72;;;14.00;99.90;;;;;;10450657;28;20048;-30
2023/11/18 20:39:01;;;;;;;37.15;5.63;;;14.00;99.90;;;;;;10448486;28;20553;-30
2023/11/18 20:44:03;;;;;;;36.72;4.72;;;13.80;99.90;;;;;;10447271;28;20726;-30
2023/11/18 20:49:06;;;;;;;38.50;5.50;;;13.80;99.90;;;;;;10445380;28;20132;-29
2023/11/18 20:54:08;;;;;;;43.33;6.75;;;13.80;99.90;;;;;;10447034;28;20047;-29
2023/11/18 20:59:09;;;;;;;43.28;5.15;;;13.80;99.90;;;;;;10446506;28;20048;-30
2023/11/18 21:04:13;;;;;;;32.40;4.15;;;13.90;99.90;;;;;;10448340;28;20173;-30
2023/11/18 21:09:16;;;;;;;29.55;5.15;;;13.70;99.90;;;;;;10446590;28;20840;-31
2023/11/18 21:14:18;;;;;;;49.27;7.17;;;13.80;99.90;;;;;;10444029;28;20086;-30
2023/11/18 21:19:21;;;;;;;45.50;5.40;;;13.60;99.90;;;;;;10447697;28;20168;-29
2023/11/18 21:24:25;;;;;;;25.83;4.18;;;13.80;99.90;;;;;;10445339;28;20140;-31
2023/11/18 21:29:27;;;;;;;38.47;4.78;;;13.70;99.90;;;;;;10445262;28;20041;-32
2023/11/18 21:34:30;;;;;;;28.65;3.83;;;13.70;99.90;;;;;;10445847;28;20107;-29
2023/11/18 21:39:32;;;;;;;33.25;5.05;;;13.90;99.90;;;;;;10444593;28;20909;-30
2023/11/18 21:44:34;;;;;;;26.15;4.07;;;13.90;99.90;;;;;;10447031;28;20045;-30
2023/11/18 21:49:38;;;;;;;40.58;5.15;;;13.80;99.90;;;;;;10449749;28;20090;-30
2023/11/18 21:54:39;;;;;;;39.08;6.45;;;13.80;99.90;;;;;;10448037;28;20571;-29
2023/11/18 21:59:41;;;;;;;26.70;4.47;;;13.70;99.90;;;;;;10454035;28;20084;-30
2023/11/18 22:04:45;;;;;;;34.30;6.10;;;13.70;99.90;;;;;;10451403;28;20129;-29
2023/11/18 22:09:47;;;;;;;34.17;6.43;;;13.70;99.90;;;;;;10454746;28;20064;-29
2023/11/18 22:14:49;;;;;;;34.92;5.68;;;13.70;99.90;;;;;;10454657;28;20392;-29
2023/11/18 22:19:52;;;;;;;52.03;5.95;;;13.60;99.90;;;;;;10451645;28;20062;-30
2023/11/18 22:24:54;;;;;;;37.72;5.20;;;13.60;99.90;;;;;;10453494;28;20045;-30
2023/11/18 22:29:56;;;;;;;29.00;4.32;;;13.50;99.90;;;;;;10453732;28;20057;-33
2023/11/18 22:34:59;;;;;;;31.35;5.47;;;13.50;99.90;;;;;;10446952;28;20213;-30
2023/11/18 22:40:01;;;;;;;29.55;4.60;;;13.60;99.90;;;;;;10446070;28;20953;-30
2023/11/18 22:45:03;;;;;;;30.90;4.83;;;13.60;99.90;;;;;;10437799;28;20061;-30
2023/11/18 22:50:09;;;;;;;37.43;4.20;;;13.80;99.90;;;;;;10449125;28;20048;-28
2023/11/18 22:55:12;;;;;;;30.50;4.60;;;13.70;99.90;;;;;;10445886;28;20048;-29
2023/11/18 23:00:29;;;;;;;42.97;6.30;;;13.50;99.90;;;;;;10446045;28;20040;-31
2023/11/18 23:05:35;;;;;;;25.20;3.50;;;13.60;99.90;;;;;;10449630;28;20048;-28
2023/11/18 23:10:38;;;;;;;39.95;4.18;;;13.70;99.90;;;;;;10446129;28;20041;-29
2023/11/18 23:15:40;;;;;;;43.15;6.38;;;13.60;99.90;;;;;;10450303;28;20413;-30
2023/11/18 23:20:43;;;;;;;40.05;5.10;;;13.50;99.90;;;;;;10447434;28;20158;-31
2023/11/18 23:25:45;;;;;;;46.75;7.07;;;13.50;99.90;;;;;;10447897;28;20105;-30
2023/11/18 23:30:47;;;;;;;49.83;6.85;;;13.50;99.90;;;;;;10445994;28;20090;-29
2023/11/18 23:35:52;;;;;;;77.97;9.02;;;13.40;99.90;;;;;;10444390;28;20476;-29
2023/11/18 23:40:54;;;;;;;51.75;7.18;;;13.30;99.90;;;;;;10445992;28;20044;-29
2023/11/18 23:45:56;;;;;;;61.58;9.95;;;13.30;99.90;;;;;;10444777;28;20051;-31
2023/11/18 23:51:00;;;;;;;83.95;10.38;;;13.40;99.90;;;;;;10452808;28;20059;-30
2023/11/18 23:56:02;;;;;;;54.85;6.75;;;13.30;99.90;;;;;;10445358;28;20044;-31
